Seabreeze 1 — V3RT5 — position and weather

sailwx.info

Track history (hours):
 
Tides and Currents Weather Stations Pressure Air Temp Water Temp Dewpoint Dewpoint Depression Visibility Wind Speed Wind Dir Waves Ship Positions

Seabreeze 1

Last reported at 2014-Aug-16 14:25 UTC. Time now 2014-Aug-21 14:10 UTC.
Position N 41°02' E 037°30'.

Length 139 m; draft 3.9 m.

Type: Cargo ship. MMSI: 312411000.

Date/timePositionNaut miles runAvg speedWind from/ knotsBaromVisibWave heightAir tempDewpointWater temp
2014-Aug-16 14:25N 41°02' E 037°30'0 0.0
2014-Aug-16 13:31N 41°02' E 037°30'0 0.0
2014-Aug-16 12:08N 41°02' E 037°30'0 0.0
2014-Aug-16 11:15N 41°02' E 037°30'0 0.0
2014-Aug-15 13:17N 41°02' E 037°30'80 3.3
2014-Aug-14 13:17N 42°20' E 037°11'5 6.6
2014-Aug-14 12:29N 42°26' E 037°09'96 6.9
2014-Aug-13 22:33N 43°60' E 036°43'6 6.4
2014-Aug-13 21:33N 44°06' E 036°41'9 6.6
2014-Aug-13 20:16N 44°15' E 036°38'5 7.0
2014-Aug-13 19:33N 44°19' E 036°37'7 7.3
2014-Aug-13 18:32N 44°27' E 036°35'14 7.2
2014-Aug-13 16:33N 44°41' E 036°31'7 6.9
2014-Aug-13 15:33N 44°47' E 036°29'9 6.6
2014-Aug-13 14:12N 44°56' E 036°29'  
Track history (hours):
 
Tides and Currents Weather Stations Pressure Air Temp Water Temp Dewpoint Dewpoint Depression Visibility Wind Speed Wind Dir Waves Ship Positions

Seabreeze 1

Last reported at 2014-Aug-16 14:25 UTC. Time now 2014-Aug-21 14:10 UTC.
Position N 41°02' E 037°30'.

Length 139 m; draft 3.9 m.

Type: Cargo ship. MMSI: 312411000.

Date/timePositionNaut miles runAvg speedWind from/ knotsBaromVisibWave heightAir tempDewpointWater temp
2014-Aug-16 14:25N 41°02' E 037°30'0 0.0
2014-Aug-16 13:31N 41°02' E 037°30'0 0.0
2014-Aug-16 12:08N 41°02' E 037°30'0 0.0
2014-Aug-16 11:15N 41°02' E 037°30'0 0.0
2014-Aug-15 13:17N 41°02' E 037°30'80 3.3
2014-Aug-14 13:17N 42°20' E 037°11'5 6.6
2014-Aug-14 12:29N 42°26' E 037°09'96 6.9
2014-Aug-13 22:33N 43°60' E 036°43'6 6.4
2014-Aug-13 21:33N 44°06' E 036°41'9 6.6
2014-Aug-13 20:16N 44°15' E 036°38'5 7.0
2014-Aug-13 19:33N 44°19' E 036°37'7 7.3
2014-Aug-13 18:32N 44°27' E 036°35'14 7.2
2014-Aug-13 16:33N 44°41' E 036°31'7 6.9
2014-Aug-13 15:33N 44°47' E 036°29'9 6.6
2014-Aug-13 14:12N 44°56' E 036°29'  

Dump ship's entire track history